Hot Springs, VA

2:15 AM EDT on May 24, 2015 (GMT -0400)
Thomastown | | Change Station
CLOSE
Current Station
Personal Weather Station
Location: Hot Springs, VA
Elevation: 2290 ft
Nearby Weather Stations

Elev 2290 ft 38.01 °N, 79.84 °W | Updated 11 seconds ago

Clear
Clear
50.2 °F
Feels Like 50.2 °F
N
0.0
Wind Variable Wind from NE
Gusts 0.0 mph

Today
High -- | Low -- °F
--% Chance of Precip.
Yesterday
High -- | Low -- °F
Precip. -- in
6:02 AM 8:30 PM
Waxing Crescent, 36% visible
Pressure 30.42 in
Visibility 10.0 miles
Clouds Clear
Dew Point 21 °F
Humidity 31%
Rainfall 0.00 in
Snow Depth Not available.
UV 0 out of 12
Pollen 7.50 out of 12
Air Quality Not available.
Flu Activity No Activity
METAR KHSP 240555Z AUTO 22007KT 10SM CLR 14/07 A3042 RMK AO2 T01360070 10153 20131

More Conditions Fewer Conditions

Pressure 30.42 in
Visibility 10.0 miles
Clouds Clear
Dew Point 21 °F
Humidity 31%
Rainfall 0.00 in
Snow Depth Not available.
UV 0 out of 12
Pollen 7.50 out of 12
Air Quality Not available.
Flu Activity No Activity
METAR KHSP 240555Z AUTO 22007KT 10SM CLR 14/07 A3042 RMK AO2 T01360070 10153 20131

More Conditions Fewer Conditions

10-Day Weather Forecast

Almanac

Astronomy

May. 24, 2015 Rise Set
Actual Time
Civil Twilight
Nautical Twilight
Astronomical Twilight
Moon
Length of Visible Light
Length of Day
Tomorrow will be .
, % of the Moon is Illuminated

Today's Extremes

State Highs State Lows

Community

WunderPhotos

Upload Photos

1,823,694 photos uploaded!

WunderBlogs® & News

Nearby

Air Quality

  Air Quality AQ Index Pollutant
Not available.

Snow Depth

Station Depth Elevation

Earthquake Activity

City Distance Mag. Time & Date
Minimum magnitude displayed is 2.5.

Coastal Water Temperatures

Place Temperature

Stations

Nearby Weather Stations

Station Location Temp. Windchill Dew Point Humidity Wind Precip. Elev Updated Type